Underhill Flats, Vermont
Current Conditions -  °F | °C
As of 9:54 PM on Friday 31 Oct 2014 (Local Time) from KBTV Reporting Station
Overcast Overcast  
Wind Chill: 38°   Ceiling: 6000
Heat Index: 42°   Visibility: 10mi
Dew Point: 27°   Wind: 7mph
Humidity: 55%   Direction: 350°N
Pressure: 30.05"   Gusts: NA
Location:  44.5378°N, 72.8938°W
Report Text: KBTV 010154Z 35006KT 10SM OVC060 06/M03 A3005 RMK AO2 SLP180 T00561028
Loading
Personal Weather Stations






























Interactive Weather Map
Tropical Storm Tracking
New forecast layout! Learn more

10-Day Weather Forecast

Advertisements
Track Severe Weather on mobile